Aérodrome :
LOGIN :

S'inscrire | Disclaimer

   EN    FR    IT 

 










Légende :    VFR   VFR Marginal   IFR   IFR Intensif   IFR Très Intensif
Visi : 
Plafond : 
>= 8 km
>= 3000ft
5 à 8 km
1000 à 3000 ft
1500m à 5 km
500 à 1000 ft
800 à 1500m
200 à 500 ft
< 800m
< 200 ft
Symboles :   Orages  Brouillard  Fortes neiges  Fortes précipitations  Vent > 20 kt
SIGMETs :   Divers  Orages  Givrage  Turbulence  Onde Orograph.  Cendres Volcan.






- Altitude de l'aérodrome : 1260 ft
- Code IATA : LDE


LFBT - Tarbes / Ossun

DERNIER METAR :
  • 261630Z AUTO 30012KT 260V350 9999 -RA BKN024/// BKN032/// BKN041/// ///TCU 07/04 Q1021 TEMPO 27018G30KT 4000 SHRA BKN009 FEW020CB BKN025TCU

METARs EXPIRÉS :
  • 261600Z AUTO 24017KT 9999 FEW030/// SCT045/// BKN084/// ///TCU 08/04 Q1020 TEMPO 27018G30KT 3000 SHRA BKN009 FEW020CB BKN025TCU
  • 261530Z AUTO 24016KT 9999 FEW018/// SCT024/// BKN034/// ///TCU 09/05 Q1020 TEMPO 27018G30KT 3000 SHRA BKN009 FEW020CB BKN025TCU
  • 261500Z AUTO 25015KT 9999 -RA BKN028/// BKN036/// BKN043/// ///TCU 09/05 Q1020 TEMPO 27018G30KT 3000 SHRA BKN009 FEW020CB BKN025TCU
  • 261430Z AUTO 25016KT 220V280 9999 FEW023/// BKN031/// ///TCU 10/04 Q1020 TEMPO 27018G30KT 3000 SHRA BKN009 FEW020CB BKN025TCU
  • 261400Z AUTO 25016KT 9999 BKN019/// BKN044/// BKN050/// ///TCU 09/06 Q1020 TEMPO 27018G30KT 3000 SHRA BKN009 FEW020CB BKN025TCU

TAF TAF LFBT
Valide du 26 à 12h jusqu'au 27 à 12h UTC


261100Z 2612/2712 27015KT 9999 BKN025
TEMPO 2612/2618 27018G30KT 3000 SHRA BKN009 FEW020CB BKN025TCU
BECMG 2618/2620 24005KT
PROB30
TEMPO 2618/2624 4000 SHRA BKN020
BECMG 2708/2710 27015KT
TEMPO 2710/2712 27020G40KT



MET'MAP, la Météo Aéronautique d'un coup d'oeil ! - Copyright ORBIFLY Décembre 2007 - Disclaimer

ORBIFLY MET'MAP TEAM :

Programmation & Développement : Alexandra Zaïnal
Sur une idée originale de : Baudouin d'Aumeries
Assistance à la programmation : Marc-Olivier Méhu
Soutien technique & logistique : Manuel Goepfert

Contact : metmap@orbifly.com




SOURCES & CREDITS :

   NOAA